Погода Тамдына 2 недели

Актюбинская область, Казахстан

18 - 31 июля
  • 18июля
    Сегодня
    +17°
    +26°
    Небольшая облачность
    ВремяПогодаТемператураВлажностьДавлениеВетер, м/сВероятность осадков
    02:00Ясно и безоблачно+17°C75 %735 мм2.9 м/с2 %
    05:00Ясно и безоблачно+16°C85 %734 мм2.3 м/с2 %
    08:00Облачно с прояснениями+19°C77 %735 мм2.5 м/с2 %
    11:00Практически безоблачно+24°C50 %735 мм3.6 м/с2 %
    14:00Небольшая облачность+25°C44 %734 мм2.7 м/с3 %
    17:00Облачно с прояснениями+26°C39 %733 мм2.3 м/с11 %
    20:00Практически безоблачно+25°C53 %733 мм1.9 м/с5 %
    23:00Практически безоблачно+21°C61 %732 мм1.5 м/с2 %
  • 19июля
    Пятница
    +15°
    +26°
    Практически безоблачно
    ВремяПогодаТемператураВлажностьДавлениеВетер, м/сВероятность осадков
    02:00Пасмурно, сплошная облачность+19°C74 %731 мм1.9 м/с2 %
    05:00Небольшая облачность, ливень+17°C84 %731 мм1.6 м/с33 %
    08:00Небольшая облачность+19°C80 %731 мм2.0 м/с40 %
    11:00Ясно и безоблачно+24°C63 %730 мм4.7 м/с24 %
    14:00Практически безоблачно+25°C51 %729 мм4.0 м/с22 %
    17:00Практически безоблачно+26°C51 %729 мм3.3 м/с27 %
    20:00Ясно и безоблачно+24°C57 %729 мм2.9 м/с14 %
    23:00Ясно и безоблачно+20°C79 %729 мм1.9 м/с2 %
  • 20июля
    Суббота
    +17°
    +28°
    Облачно с прояснениями
    ВремяПогодаТемператураВлажностьДавлениеВетер, м/сВероятность осадков
    02:00Ясно и безоблачно+17°C91 %729 мм1.8 м/с2 %
    05:00Ясно и безоблачно+16°C96 %729 мм1.7 м/с2 %
    08:00Ясно и безоблачно+20°C82 %730 мм1.2 м/с2 %
    11:00Ясно и безоблачно+24°C56 %730 мм2.7 м/с2 %
    14:00Облачно с прояснениями+26°C48 %730 мм2.3 м/с31 %
    17:00Небольшая облачность+28°C47 %731 мм2.5 м/с16 %
    20:00Ясно и безоблачно+27°C55 %731 мм1.4 м/с3 %
    23:00Ясно и безоблачно+22°C75 %731 мм1.9 м/с2 %
  • 21июля
    Воскресенье
    +20°
    +31°
    Облачно с прояснениями
    ВремяПогодаТемператураВлажностьДавлениеВетер, м/сВероятность осадков
    02:00Ясно и безоблачно+19°C85 %731 мм1.9 м/с2 %
    05:00Ясно и безоблачно+18°C90 %731 мм1.8 м/с2 %
    08:00Ясно и безоблачно+22°C74 %732 мм1.4 м/с2 %
    11:00Практически безоблачно+27°C51 %733 мм0.7 м/с2 %
    14:00Облачно с прояснениями+28°C44 %733 мм0.4 м/с3 %
    17:00Небольшая облачность+30°C41 %732 мм0.3 м/с4 %
    20:00Облачно с прояснениями+29°C55 %732 мм1.1 м/с8 %
    23:00Ясно и безоблачно+25°C60 %732 мм3.3 м/с5 %
  • 22июля
    Понедельник
    +18°
    +32°
    Практически безоблачно
    ВремяПогодаТемператураВлажностьДавлениеВетер, м/сВероятность осадков
    02:00Облачно с прояснениями+22°C68 %731 мм3.1 м/с10 %
    05:00Облачно с прояснениями+21°C73 %731 мм2.7 м/с10 %
    08:00Облачно с прояснениями+24°C66 %732 мм3.7 м/с9 %
    11:00Небольшая облачность+29°C45 %732 мм4.3 м/с8 %
    14:00Практически безоблачно+31°C32 %731 мм3.4 м/с16 %
    17:00Небольшая облачность+32°C31 %730 мм4.0 м/с15 %
    20:00Практически безоблачно+29°C49 %729 мм1.7 м/с19 %
    23:00Ясно и безоблачно+24°C51 %729 мм3.2 м/с4 %
Мы используем cookies
Соглашаюсь